Terminal Aerodrome Forecast
Issued by NWS

Home | Current Version | Previous Version | Text Only | Print | Product List | Glossary On
Versions: 1 2 3 4 5 6 7 8 9 10 11 12 13 14
000
FTUS44 KSJT 291724
TAFBBD
TAF
KBBD 291724Z 2918/3018 14011KT P6SM SCT050
     FM300000 12009KT P6SM VCSH SCT060 BKN120
     FM300400 13007KT P6SM VCTS BKN040CB
     FM300700 14006KT P6SM VCSH BKN060
     FM301200 15007KT P6SM BKN025
      AMD NOT SKED=

USA.gov is the U.S. government's official web portal to all federal, state and local government web resources and services.